sensor_id;sensor_type;location;lat;lon;timestamp;temperature;humidity
69382;DHT22;56560;50.692;12.844;2023-05-19T00:02:29;10.20;69.20
69382;DHT22;56560;50.692;12.844;2023-05-19T00:05:03;10.30;69.00
69382;DHT22;56560;50.692;12.844;2023-05-19T00:07:32;10.30;69.00
69382;DHT22;56560;50.692;12.844;2023-05-19T00:10:54;10.30;69.00
69382;DHT22;56560;50.692;12.844;2023-05-19T00:13:28;10.30;67.90
69382;DHT22;56560;50.692;12.844;2023-05-19T00:15:54;10.30;67.60
69382;DHT22;56560;50.692;12.844;2023-05-19T00:18:31;10.30;68.10
69382;DHT22;56560;50.692;12.844;2023-05-19T00:21:07;10.20;68.80
69382;DHT22;56560;50.692;12.844;2023-05-19T00:23:41;10.20;69.20
69382;DHT22;56560;50.692;12.844;2023-05-19T00:26:18;10.10;69.70
69382;DHT22;56560;50.692;12.844;2023-05-19T00:28:52;10.10;70.60
69382;DHT22;56560;50.692;12.844;2023-05-19T00:31:40;10.00;70.80
69382;DHT22;56560;50.692;12.844;2023-05-19T00:34:32;10.00;70.90
69382;DHT22;56560;50.692;12.844;2023-05-19T00:37:06;10.00;71.50
69382;DHT22;56560;50.692;12.844;2023-05-19T00:39:40;9.90;71.20
69382;DHT22;56560;50.692;12.844;2023-05-19T00:42:14;9.90;71.20
69382;DHT22;56560;50.692;12.844;2023-05-19T00:44:45;9.90;71.40
69382;DHT22;56560;50.692;12.844;2023-05-19T00:47:11;9.80;71.40
69382;DHT22;56560;50.692;12.844;2023-05-19T00:49:40;9.80;71.60
69382;DHT22;56560;50.692;12.844;2023-05-19T00:52:08;9.70;71.00
69382;DHT22;56560;50.692;12.844;2023-05-19T00:54:52;9.70;71.00
69382;DHT22;56560;50.692;12.844;2023-05-19T00:57:35;9.70;70.60
69382;DHT22;56560;50.692;12.844;2023-05-19T01:00:10;9.60;70.70
69382;DHT22;56560;50.692;12.844;2023-05-19T01:02:39;9.60;70.80
69382;DHT22;56560;50.692;12.844;2023-05-19T01:05:05;9.60;70.30
69382;DHT22;56560;50.692;12.844;2023-05-19T01:07:32;9.60;71.60
69382;DHT22;56560;50.692;12.844;2023-05-19T01:09:57;9.50;72.20
69382;DHT22;56560;50.692;12.844;2023-05-19T01:12:23;9.50;72.40
69382;DHT22;56560;50.692;12.844;2023-05-19T01:14:50;9.50;73.00
69382;DHT22;56560;50.692;12.844;2023-05-19T01:17:26;9.50;72.60
69382;DHT22;56560;50.692;12.844;2023-05-19T01:20:06;9.50;72.80
69382;DHT22;56560;50.692;12.844;2023-05-19T01:30:54;9.60;72.30
69382;DHT22;56560;50.692;12.844;2023-05-19T01:33:21;9.60;72.40
69382;DHT22;56560;50.692;12.844;2023-05-19T01:35:48;9.50;72.50
69382;DHT22;56560;50.692;12.844;2023-05-19T01:38:16;9.50;72.10
69382;DHT22;56560;50.692;12.844;2023-05-19T01:40:44;9.60;72.20
69382;DHT22;56560;50.692;12.844;2023-05-19T01:43:13;9.50;72.20
69382;DHT22;56560;50.692;12.844;2023-05-19T01:45:39;9.50;72.70
69382;DHT22;56560;50.692;12.844;2023-05-19T01:48:06;9.50;72.80
69382;DHT22;56560;50.692;12.844;2023-05-19T01:50:33;9.40;72.50
69382;DHT22;56560;50.692;12.844;2023-05-19T01:52:59;9.40;72.90
69382;DHT22;56560;50.692;12.844;2023-05-19T01:55:25;9.30;73.00
69382;DHT22;56560;50.692;12.844;2023-05-19T02:08:42;8.90;73.50
69382;DHT22;56560;50.692;12.844;2023-05-19T02:14:14;8.80;73.60
69382;DHT22;56560;50.692;12.844;2023-05-19T02:16:44;8.70;73.90
69382;DHT22;56560;50.692;12.844;2023-05-19T02:19:20;8.60;74.70
69382;DHT22;56560;50.692;12.844;2023-05-19T02:21:46;8.50;74.20
69382;DHT22;56560;50.692;12.844;2023-05-19T02:24:11;8.40;74.60
69382;DHT22;56560;50.692;12.844;2023-05-19T02:26:37;8.40;75.10
69382;DHT22;56560;50.692;12.844;2023-05-19T02:29:03;8.30;76.40
69382;DHT22;56560;50.692;12.844;2023-05-19T02:31:28;8.20;74.90
69382;DHT22;56560;50.692;12.844;2023-05-19T02:33:54;8.20;75.10
69382;DHT22;56560;50.692;12.844;2023-05-19T02:36:19;8.10;75.50
69382;DHT22;56560;50.692;12.844;2023-05-19T02:38:45;8.00;75.80
69382;DHT22;56560;50.692;12.844;2023-05-19T02:41:10;8.00;76.30
69382;DHT22;56560;50.692;12.844;2023-05-19T02:43:36;7.90;76.80
69382;DHT22;56560;50.692;12.844;2023-05-19T02:46:02;7.90;76.70
69382;DHT22;56560;50.692;12.844;2023-05-19T02:48:27;7.90;77.20
69382;DHT22;56560;50.692;12.844;2023-05-19T02:50:53;7.90;77.00
69382;DHT22;56560;50.692;12.844;2023-05-19T02:53:18;7.90;77.00
69382;DHT22;56560;50.692;12.844;2023-05-19T02:55:44;7.90;76.80
69382;DHT22;56560;50.692;12.844;2023-05-19T02:58:10;8.00;77.70
69382;DHT22;56560;50.692;12.844;2023-05-19T03:00:35;7.90;77.60
69382;DHT22;56560;50.692;12.844;2023-05-19T03:03:01;7.90;78.00
69382;DHT22;56560;50.692;12.844;2023-05-19T03:05:28;7.90;77.60
69382;DHT22;56560;50.692;12.844;2023-05-19T03:07:57;7.90;77.60
69382;DHT22;56560;50.692;12.844;2023-05-19T03:10:22;7.90;78.50
69382;DHT22;56560;50.692;12.844;2023-05-19T03:12:48;7.80;78.70
69382;DHT22;56560;50.692;12.844;2023-05-19T03:15:14;7.80;78.10
69382;DHT22;56560;50.692;12.844;2023-05-19T03:17:40;7.70;78.30
69382;DHT22;56560;50.692;12.844;2023-05-19T03:20:06;7.70;78.70
69382;DHT22;56560;50.692;12.844;2023-05-19T03:22:32;7.70;78.90
69382;DHT22;56560;50.692;12.844;2023-05-19T03:24:58;7.60;79.10
69382;DHT22;56560;50.692;12.844;2023-05-19T03:27:24;7.60;78.60
69382;DHT22;56560;50.692;12.844;2023-05-19T03:29:50;7.70;78.70
69382;DHT22;56560;50.692;12.844;2023-05-19T03:32:17;7.70;78.70
69382;DHT22;56560;50.692;12.844;2023-05-19T03:34:42;7.80;78.70
69382;DHT22;56560;50.692;12.844;2023-05-19T03:37:08;7.90;78.70
69382;DHT22;56560;50.692;12.844;2023-05-19T03:39:35;7.90;78.60
69382;DHT22;56560;50.692;12.844;2023-05-19T03:42:01;8.00;77.90
69382;DHT22;56560;50.692;12.844;2023-05-19T03:44:26;8.00;77.50
69382;DHT22;56560;50.692;12.844;2023-05-19T03:46:52;8.10;78.10
69382;DHT22;56560;50.692;12.844;2023-05-19T03:49:18;8.20;77.30
69382;DHT22;56560;50.692;12.844;2023-05-19T03:51:43;8.30;76.70
69382;DHT22;56560;50.692;12.844;2023-05-19T03:54:09;8.40;76.40
69382;DHT22;56560;50.692;12.844;2023-05-19T03:56:37;8.50;76.00
69382;DHT22;56560;50.692;12.844;2023-05-19T03:59:03;8.60;75.40
69382;DHT22;56560;50.692;12.844;2023-05-19T04:01:31;8.60;75.60
69382;DHT22;56560;50.692;12.844;2023-05-19T04:03:57;8.80;74.80
69382;DHT22;56560;50.692;12.844;2023-05-19T04:06:23;8.90;74.40
69382;DHT22;56560;50.692;12.844;2023-05-19T04:08:49;9.00;74.60
69382;DHT22;56560;50.692;12.844;2023-05-19T04:11:14;9.00;74.60
69382;DHT22;56560;50.692;12.844;2023-05-19T04:13:40;9.20;74.70
69382;DHT22;56560;50.692;12.844;2023-05-19T04:16:06;9.30;73.70
69382;DHT22;56560;50.692;12.844;2023-05-19T04:18:32;9.40;73.00
69382;DHT22;56560;50.692;12.844;2023-05-19T04:20:57;9.50;72.90
69382;DHT22;56560;50.692;12.844;2023-05-19T04:23:23;9.70;72.70
69382;DHT22;56560;50.692;12.844;2023-05-19T04:25:49;9.80;72.00
69382;DHT22;56560;50.692;12.844;2023-05-19T04:28:14;9.90;71.70
69382;DHT22;56560;50.692;12.844;2023-05-19T04:30:40;10.10;70.30
69382;DHT22;56560;50.692;12.844;2023-05-19T04:33:07;10.20;70.50
69382;DHT22;56560;50.692;12.844;2023-05-19T04:35:33;10.30;69.80
69382;DHT22;56560;50.692;12.844;2023-05-19T04:37:59;10.40;69.40
69382;DHT22;56560;50.692;12.844;2023-05-19T04:40:26;10.50;68.70
69382;DHT22;56560;50.692;12.844;2023-05-19T04:42:52;10.60;68.70
69382;DHT22;56560;50.692;12.844;2023-05-19T04:45:18;10.70;68.70
69382;DHT22;56560;50.692;12.844;2023-05-19T04:47:44;10.80;68.70
69382;DHT22;56560;50.692;12.844;2023-05-19T04:50:12;11.00;67.50
69382;DHT22;56560;50.692;12.844;2023-05-19T04:52:39;11.10;67.50
69382;DHT22;56560;50.692;12.844;2023-05-19T04:55:06;11.30;67.00
69382;DHT22;56560;50.692;12.844;2023-05-19T04:57:32;11.30;66.50
69382;DHT22;56560;50.692;12.844;2023-05-19T04:59:57;11.50;66.60
69382;DHT22;56560;50.692;12.844;2023-05-19T05:02:27;11.50;66.60
69382;DHT22;56560;50.692;12.844;2023-05-19T05:04:53;11.50;65.70
69382;DHT22;56560;50.692;12.844;2023-05-19T05:07:21;11.60;65.30
69382;DHT22;56560;50.692;12.844;2023-05-19T05:09:47;11.60;65.60
69382;DHT22;56560;50.692;12.844;2023-05-19T05:12:13;11.70;66.30
69382;DHT22;56560;50.692;12.844;2023-05-19T05:14:40;11.90;65.30
69382;DHT22;56560;50.692;12.844;2023-05-19T05:17:06;12.00;64.70
69382;DHT22;56560;50.692;12.844;2023-05-19T05:19:32;12.10;64.20
69382;DHT22;56560;50.692;12.844;2023-05-19T05:21:58;12.20;62.50
69382;DHT22;56560;50.692;12.844;2023-05-19T05:24:25;12.30;61.20
69382;DHT22;56560;50.692;12.844;2023-05-19T05:26:51;12.40;60.40
69382;DHT22;56560;50.692;12.844;2023-05-19T05:29:18;12.60;60.10
69382;DHT22;56560;50.692;12.844;2023-05-19T05:31:43;12.70;58.70
69382;DHT22;56560;50.692;12.844;2023-05-19T05:34:09;12.60;59.10
69382;DHT22;56560;50.692;12.844;2023-05-19T05:36:35;12.70;57.80
69382;DHT22;56560;50.692;12.844;2023-05-19T05:39:01;12.60;57.30
69382;DHT22;56560;50.692;12.844;2023-05-19T05:41:27;12.50;58.00
69382;DHT22;56560;50.692;12.844;2023-05-19T05:44:02;12.50;57.80
69382;DHT22;56560;50.692;12.844;2023-05-19T05:46:28;12.80;57.70
69382;DHT22;56560;50.692;12.844;2023-05-19T05:48:54;12.90;57.50
69382;DHT22;56560;50.692;12.844;2023-05-19T05:51:21;13.00;56.60
69382;DHT22;56560;50.692;12.844;2023-05-19T05:53:52;13.00;56.00
69382;DHT22;56560;50.692;12.844;2023-05-19T05:56:18;13.00;56.20
69382;DHT22;56560;50.692;12.844;2023-05-19T05:58:43;13.10;55.50
69382;DHT22;56560;50.692;12.844;2023-05-19T06:01:10;13.20;55.90
69382;DHT22;56560;50.692;12.844;2023-05-19T06:03:44;13.30;55.90
69382;DHT22;56560;50.692;12.844;2023-05-19T06:06:10;13.50;55.00
69382;DHT22;56560;50.692;12.844;2023-05-19T06:08:36;13.60;54.50
69382;DHT22;56560;50.692;12.844;2023-05-19T06:11:02;13.70;55.00
69382;DHT22;56560;50.692;12.844;2023-05-19T06:13:35;13.90;54.60
69382;DHT22;56560;50.692;12.844;2023-05-19T06:16:00;14.20;53.70
69382;DHT22;56560;50.692;12.844;2023-05-19T06:18:27;14.40;53.00
69382;DHT22;56560;50.692;12.844;2023-05-19T06:20:53;14.50;52.10
69382;DHT22;56560;50.692;12.844;2023-05-19T06:23:18;14.30;52.60
69382;DHT22;56560;50.692;12.844;2023-05-19T06:25:44;14.30;52.30
69382;DHT22;56560;50.692;12.844;2023-05-19T06:28:10;14.20;53.30
69382;DHT22;56560;50.692;12.844;2023-05-19T06:30:36;14.20;53.30
69382;DHT22;56560;50.692;12.844;2023-05-19T06:33:01;14.30;53.40
69382;DHT22;56560;50.692;12.844;2023-05-19T06:35:30;14.50;52.60
69382;DHT22;56560;50.692;12.844;2023-05-19T06:37:56;14.70;52.00
69382;DHT22;56560;50.692;12.844;2023-05-19T06:40:22;14.60;52.40
69382;DHT22;56560;50.692;12.844;2023-05-19T06:42:48;14.70;52.10
69382;DHT22;56560;50.692;12.844;2023-05-19T06:45:14;14.90;51.30
69382;DHT22;56560;50.692;12.844;2023-05-19T06:47:40;15.10;51.50
69382;DHT22;56560;50.692;12.844;2023-05-19T06:50:07;15.20;51.40
69382;DHT22;56560;50.692;12.844;2023-05-19T06:52:33;15.30;50.60
69382;DHT22;56560;50.692;12.844;2023-05-19T06:54:59;15.20;51.00
69382;DHT22;56560;50.692;12.844;2023-05-19T06:57:25;15.30;50.90
69382;DHT22;56560;50.692;12.844;2023-05-19T06:59:50;15.20;50.50
69382;DHT22;56560;50.692;12.844;2023-05-19T07:02:16;15.00;52.00
69382;DHT22;56560;50.692;12.844;2023-05-19T07:04:41;15.20;51.60
69382;DHT22;56560;50.692;12.844;2023-05-19T07:07:07;15.50;51.20
69382;DHT22;56560;50.692;12.844;2023-05-19T07:09:33;15.80;50.10
69382;DHT22;56560;50.692;12.844;2023-05-19T07:11:59;15.80;50.10
69382;DHT22;56560;50.692;12.844;2023-05-19T07:14:25;15.80;49.30
69382;DHT22;56560;50.692;12.844;2023-05-19T07:16:51;15.40;51.00
69382;DHT22;56560;50.692;12.844;2023-05-19T07:19:17;15.60;50.60
69382;DHT22;56560;50.692;12.844;2023-05-19T07:21:46;15.70;50.40
69382;DHT22;56560;50.692;12.844;2023-05-19T07:24:12;15.90;50.10
69382;DHT22;56560;50.692;12.844;2023-05-19T07:26:38;16.10;49.10
69382;DHT22;56560;50.692;12.844;2023-05-19T07:29:04;16.10;50.00
69382;DHT22;56560;50.692;12.844;2023-05-19T07:31:29;16.30;49.50
69382;DHT22;56560;50.692;12.844;2023-05-19T07:33:56;16.40;48.70
69382;DHT22;56560;50.692;12.844;2023-05-19T07:36:22;16.60;48.50
69382;DHT22;56560;50.692;12.844;2023-05-19T07:38:47;16.70;48.50
69382;DHT22;56560;50.692;12.844;2023-05-19T07:41:13;16.70;48.50
69382;DHT22;56560;50.692;12.844;2023-05-19T07:43:39;16.90;48.20
69382;DHT22;56560;50.692;12.844;2023-05-19T07:46:05;17.10;48.10
69382;DHT22;56560;50.692;12.844;2023-05-19T07:48:30;17.30;47.90
69382;DHT22;56560;50.692;12.844;2023-05-19T07:50:56;17.60;46.30
69382;DHT22;56560;50.692;12.844;2023-05-19T07:53:22;17.60;46.80
69382;DHT22;56560;50.692;12.844;2023-05-19T07:55:47;17.60;46.00
69382;DHT22;56560;50.692;12.844;2023-05-19T07:58:13;17.30;47.10
69382;DHT22;56560;50.692;12.844;2023-05-19T08:00:39;17.60;46.80
69382;DHT22;56560;50.692;12.844;2023-05-19T08:03:08;18.00;46.40
69382;DHT22;56560;50.692;12.844;2023-05-19T08:05:34;18.00;45.60
69382;DHT22;56560;50.692;12.844;2023-05-19T08:08:00;17.70;46.10
69382;DHT22;56560;50.692;12.844;2023-05-19T08:10:26;17.40;47.00
69382;DHT22;56560;50.692;12.844;2023-05-19T08:12:51;17.40;46.30
69382;DHT22;56560;50.692;12.844;2023-05-19T08:15:17;17.30;46.70
69382;DHT22;56560;50.692;12.844;2023-05-19T08:17:43;17.20;46.90
69382;DHT22;56560;50.692;12.844;2023-05-19T08:20:09;17.20;46.30
69382;DHT22;56560;50.692;12.844;2023-05-19T08:22:37;17.10;47.00
69382;DHT22;56560;50.692;12.844;2023-05-19T08:25:02;16.90;46.80
69382;DHT22;56560;50.692;12.844;2023-05-19T08:27:29;16.70;47.40
69382;DHT22;56560;50.692;12.844;2023-05-19T08:29:55;16.80;47.80
69382;DHT22;56560;50.692;12.844;2023-05-19T08:32:22;16.80;47.80
69382;DHT22;56560;50.692;12.844;2023-05-19T08:34:48;17.20;46.20
69382;DHT22;56560;50.692;12.844;2023-05-19T08:37:13;17.50;46.70
69382;DHT22;56560;50.692;12.844;2023-05-19T08:39:39;18.20;45.80
69382;DHT22;56560;50.692;12.844;2023-05-19T08:42:05;18.90;43.60
69382;DHT22;56560;50.692;12.844;2023-05-19T08:44:32;19.00;41.60
69382;DHT22;56560;50.692;12.844;2023-05-19T08:47:07;19.10;41.70
69382;DHT22;56560;50.692;12.844;2023-05-19T08:49:43;19.10;42.50
69382;DHT22;56560;50.692;12.844;2023-05-19T08:55:06;18.50;42.50
69382;DHT22;56560;50.692;12.844;2023-05-19T08:57:35;18.10;42.50
69382;DHT22;56560;50.692;12.844;2023-05-19T09:00:02;18.20;43.40
69382;DHT22;56560;50.692;12.844;2023-05-19T09:02:30;18.00;42.10
69382;DHT22;56560;50.692;12.844;2023-05-19T09:04:56;17.90;43.50
69382;DHT22;56560;50.692;12.844;2023-05-19T09:07:22;18.00;42.60
69382;DHT22;56560;50.692;12.844;2023-05-19T09:09:49;18.20;42.80
69382;DHT22;56560;50.692;12.844;2023-05-19T09:12:15;18.40;42.10
69382;DHT22;56560;50.692;12.844;2023-05-19T09:14:41;18.30;41.70
69382;DHT22;56560;50.692;12.844;2023-05-19T09:17:07;17.90;42.60
69382;DHT22;56560;50.692;12.844;2023-05-19T09:19:32;17.90;42.40
69382;DHT22;56560;50.692;12.844;2023-05-19T09:22:01;17.90;42.60
69382;DHT22;56560;50.692;12.844;2023-05-19T09:24:31;18.10;43.20
69382;DHT22;56560;50.692;12.844;2023-05-19T09:27:01;18.30;43.40
69382;DHT22;56560;50.692;12.844;2023-05-19T09:29:32;18.30;42.70
69382;DHT22;56560;50.692;12.844;2023-05-19T09:31:58;18.20;42.90
69382;DHT22;56560;50.692;12.844;2023-05-19T09:34:29;18.40;42.00
69382;DHT22;56560;50.692;12.844;2023-05-19T09:36:55;18.70;42.00
69382;DHT22;56560;50.692;12.844;2023-05-19T09:39:24;19.00;41.30
69382;DHT22;56560;50.692;12.844;2023-05-19T09:42:08;19.20;39.70
69382;DHT22;56560;50.692;12.844;2023-05-19T09:44:37;19.20;39.10
69382;DHT22;56560;50.692;12.844;2023-05-19T09:47:03;19.20;39.60
69382;DHT22;56560;50.692;12.844;2023-05-19T09:49:29;19.60;38.80
69382;DHT22;56560;50.692;12.844;2023-05-19T09:51:55;19.80;39.00
69382;DHT22;56560;50.692;12.844;2023-05-19T09:54:22;19.60;39.70
69382;DHT22;56560;50.692;12.844;2023-05-19T09:57:04;19.70;38.70
69382;DHT22;56560;50.692;12.844;2023-05-19T09:59:32;19.90;39.10
69382;DHT22;56560;50.692;12.844;2023-05-19T10:01:58;20.10;38.30
69382;DHT22;56560;50.692;12.844;2023-05-19T10:04:26;20.00;38.60
69382;DHT22;56560;50.692;12.844;2023-05-19T10:06:53;20.00;38.70
69382;DHT22;56560;50.692;12.844;2023-05-19T10:09:23;20.00;38.50
69382;DHT22;56560;50.692;12.844;2023-05-19T10:11:54;19.90;39.60
69382;DHT22;56560;50.692;12.844;2023-05-19T10:14:27;20.20;38.70
69382;DHT22;56560;50.692;12.844;2023-05-19T10:16:57;20.20;38.40
69382;DHT22;56560;50.692;12.844;2023-05-19T10:19:27;20.40;37.40
69382;DHT22;56560;50.692;12.844;2023-05-19T10:21:53;20.10;37.80
69382;DHT22;56560;50.692;12.844;2023-05-19T10:24:19;20.30;38.20
69382;DHT22;56560;50.692;12.844;2023-05-19T10:26:57;20.90;37.40
69382;DHT22;56560;50.692;12.844;2023-05-19T10:29:48;20.70;37.60
69382;DHT22;56560;50.692;12.844;2023-05-19T10:32:19;20.50;38.60
69382;DHT22;56560;50.692;12.844;2023-05-19T10:40:29;20.70;39.00
69382;DHT22;56560;50.692;12.844;2023-05-19T10:45:50;21.20;38.70
69382;DHT22;56560;50.692;12.844;2023-05-19T10:48:16;21.60;37.80
69382;DHT22;56560;50.692;12.844;2023-05-19T10:50:47;21.60;37.70
69382;DHT22;56560;50.692;12.844;2023-05-19T10:53:14;21.80;38.10
69382;DHT22;56560;50.692;12.844;2023-05-19T10:55:54;21.90;37.00
69382;DHT22;56560;50.692;12.844;2023-05-19T10:58:38;22.10;37.90
69382;DHT22;56560;50.692;12.844;2023-05-19T11:01:20;21.70;37.60
69382;DHT22;56560;50.692;12.844;2023-05-19T11:03:53;21.50;37.60
69382;DHT22;56560;50.692;12.844;2023-05-19T11:06:29;21.20;38.70
69382;DHT22;56560;50.692;12.844;2023-05-19T11:08:57;21.70;37.90
69382;DHT22;56560;50.692;12.844;2023-05-19T11:11:23;22.20;37.00
69382;DHT22;56560;50.692;12.844;2023-05-19T11:13:55;22.00;37.70
69382;DHT22;56560;50.692;12.844;2023-05-19T11:16:33;22.40;37.80
69382;DHT22;56560;50.692;12.844;2023-05-19T11:18:59;22.30;37.60
69382;DHT22;56560;50.692;12.844;2023-05-19T11:21:48;22.00;37.40
69382;DHT22;56560;50.692;12.844;2023-05-19T11:24:42;21.90;38.10
69382;DHT22;56560;50.692;12.844;2023-05-19T11:29:56;21.50;38.40
69382;DHT22;56560;50.692;12.844;2023-05-19T11:32:30;22.10;37.20
69382;DHT22;56560;50.692;12.844;2023-05-19T11:34:58;22.90;36.90
69382;DHT22;56560;50.692;12.844;2023-05-19T11:37:24;23.10;36.30
69382;DHT22;56560;50.692;12.844;2023-05-19T11:39:50;23.30;36.30
69382;DHT22;56560;50.692;12.844;2023-05-19T11:42:16;23.40;35.90
69382;DHT22;56560;50.692;12.844;2023-05-19T11:44:43;23.20;36.70
69382;DHT22;56560;50.692;12.844;2023-05-19T11:47:15;23.70;35.90
69382;DHT22;56560;50.692;12.844;2023-05-19T11:49:47;24.30;35.40
69382;DHT22;56560;50.692;12.844;2023-05-19T11:52:13;24.10;34.90
69382;DHT22;56560;50.692;12.844;2023-05-19T11:54:39;23.60;36.00
69382;DHT22;56560;50.692;12.844;2023-05-19T11:57:08;23.50;35.50
69382;DHT22;56560;50.692;12.844;2023-05-19T11:59:36;24.80;34.10
69382;DHT22;56560;50.692;12.844;2023-05-19T12:02:24;25.80;32.50
69382;DHT22;56560;50.692;12.844;2023-05-19T12:04:50;26.80;30.90
69382;DHT22;56560;50.692;12.844;2023-05-19T12:07:17;26.90;30.20
69382;DHT22;56560;50.692;12.844;2023-05-19T12:09:44;27.20;29.60
69382;DHT22;56560;50.692;12.844;2023-05-19T12:12:16;27.40;28.80
69382;DHT22;56560;50.692;12.844;2023-05-19T12:14:51;27.20;29.20
69382;DHT22;56560;50.692;12.844;2023-05-19T12:17:19;27.30;29.10
69382;DHT22;56560;50.692;12.844;2023-05-19T12:19:46;26.60;29.00
69382;DHT22;56560;50.692;12.844;2023-05-19T12:22:13;25.60;30.60
69382;DHT22;56560;50.692;12.844;2023-05-19T12:24:39;25.90;31.90
69382;DHT22;56560;50.692;12.844;2023-05-19T12:27:17;27.00;30.30
69382;DHT22;56560;50.692;12.844;2023-05-19T12:29:52;27.90;28.90
69382;DHT22;56560;50.692;12.844;2023-05-19T12:32:25;28.60;29.20
69382;DHT22;56560;50.692;12.844;2023-05-19T12:34:52;28.70;28.80
69382;DHT22;56560;50.692;12.844;2023-05-19T12:37:18;28.60;29.30
69382;DHT22;56560;50.692;12.844;2023-05-19T12:39:44;28.90;29.30
69382;DHT22;56560;50.692;12.844;2023-05-19T12:42:10;28.80;29.60
69382;DHT22;56560;50.692;12.844;2023-05-19T12:44:47;28.40;30.20
69382;DHT22;56560;50.692;12.844;2023-05-19T12:47:15;27.70;31.20
69382;DHT22;56560;50.692;12.844;2023-05-19T12:50:06;26.40;32.40
69382;DHT22;56560;50.692;12.844;2023-05-19T12:53:07;25.80;33.40
69382;DHT22;56560;50.692;12.844;2023-05-19T12:55:25;25.30;33.90
69382;DHT22;56560;50.692;12.844;2023-05-19T12:57:51;25.20;34.40
69382;DHT22;56560;50.692;12.844;2023-05-19T13:00:22;25.90;33.30
69382;DHT22;56560;50.692;12.844;2023-05-19T13:03:01;26.40;32.60
69382;DHT22;56560;50.692;12.844;2023-05-19T13:05:30;26.10;32.60
69382;DHT22;56560;50.692;12.844;2023-05-19T13:08:07;25.70;33.60
69382;DHT22;56560;50.692;12.844;2023-05-19T13:10:35;25.00;34.90
69382;DHT22;56560;50.692;12.844;2023-05-19T13:13:02;24.60;35.60
69382;DHT22;56560;50.692;12.844;2023-05-19T13:15:31;24.10;35.80
69382;DHT22;56560;50.692;12.844;2023-05-19T13:18:00;23.60;36.40
69382;DHT22;56560;50.692;12.844;2023-05-19T13:20:26;24.30;36.10
69382;DHT22;56560;50.692;12.844;2023-05-19T13:22:52;25.10;35.00
69382;DHT22;56560;50.692;12.844;2023-05-19T13:25:18;24.80;35.10
69382;DHT22;56560;50.692;12.844;2023-05-19T13:27:44;24.10;35.80
69382;DHT22;56560;50.692;12.844;2023-05-19T13:30:10;23.50;36.90
69382;DHT22;56560;50.692;12.844;2023-05-19T13:32:36;23.00;37.80
69382;DHT22;56560;50.692;12.844;2023-05-19T13:35:02;22.90;38.50
69382;DHT22;56560;50.692;12.844;2023-05-19T13:37:28;22.50;38.90
69382;DHT22;56560;50.692;12.844;2023-05-19T13:39:54;21.90;39.50
69382;DHT22;56560;50.692;12.844;2023-05-19T13:42:19;21.50;40.50
69382;DHT22;56560;50.692;12.844;2023-05-19T13:44:45;21.10;41.00
69382;DHT22;56560;50.692;12.844;2023-05-19T13:47:11;20.60;42.70
69382;DHT22;56560;50.692;12.844;2023-05-19T13:49:37;20.10;43.70
69382;DHT22;56560;50.692;12.844;2023-05-19T13:52:04;19.80;44.20
69382;DHT22;56560;50.692;12.844;2023-05-19T13:54:30;19.90;44.50
69382;DHT22;56560;50.692;12.844;2023-05-19T13:56:56;20.20;43.90
69382;DHT22;56560;50.692;12.844;2023-05-19T13:59:24;20.20;44.50
69382;DHT22;56560;50.692;12.844;2023-05-19T14:01:49;20.00;44.40
69382;DHT22;56560;50.692;12.844;2023-05-19T14:04:17;20.10;44.60
69382;DHT22;56560;50.692;12.844;2023-05-19T14:06:43;20.10;44.80
69382;DHT22;56560;50.692;12.844;2023-05-19T14:09:09;20.10;44.80
69382;DHT22;56560;50.692;12.844;2023-05-19T14:11:35;19.90;45.00
69382;DHT22;56560;50.692;12.844;2023-05-19T14:14:01;19.60;45.30
69382;DHT22;56560;50.692;12.844;2023-05-19T14:16:29;19.30;46.50
69382;DHT22;56560;50.692;12.844;2023-05-19T14:18:55;19.30;46.40
69382;DHT22;56560;50.692;12.844;2023-05-19T14:21:21;19.40;46.30
69382;DHT22;56560;50.692;12.844;2023-05-19T14:23:46;19.20;46.50
69382;DHT22;56560;50.692;12.844;2023-05-19T14:26:12;19.10;47.30
69382;DHT22;56560;50.692;12.844;2023-05-19T14:28:38;19.10;47.30
69382;DHT22;56560;50.692;12.844;2023-05-19T14:31:03;19.20;47.60
69382;DHT22;56560;50.692;12.844;2023-05-19T14:33:30;19.10;47.60
69382;DHT22;56560;50.692;12.844;2023-05-19T14:35:55;18.90;48.20
69382;DHT22;56560;50.692;12.844;2023-05-19T14:38:24;18.80;48.60
69382;DHT22;56560;50.692;12.844;2023-05-19T14:40:53;18.60;49.20
69382;DHT22;56560;50.692;12.844;2023-05-19T14:43:21;18.50;49.20
69382;DHT22;56560;50.692;12.844;2023-05-19T14:45:47;18.30;49.80
69382;DHT22;56560;50.692;12.844;2023-05-19T14:48:13;18.10;50.50
69382;DHT22;56560;50.692;12.844;2023-05-19T14:50:40;17.90;50.90
69382;DHT22;56560;50.692;12.844;2023-05-19T14:53:05;17.90;51.40
69382;DHT22;56560;50.692;12.844;2023-05-19T14:55:31;17.90;51.50
69382;DHT22;56560;50.692;12.844;2023-05-19T14:57:57;18.00;51.20
69382;DHT22;56560;50.692;12.844;2023-05-19T15:00:22;18.00;51.40
69382;DHT22;56560;50.692;12.844;2023-05-19T15:02:53;18.10;52.10
69382;DHT22;56560;50.692;12.844;2023-05-19T15:05:21;18.30;51.20
69382;DHT22;56560;50.692;12.844;2023-05-19T15:07:51;18.20;51.20
69382;DHT22;56560;50.692;12.844;2023-05-19T15:10:17;17.90;51.60
69382;DHT22;56560;50.692;12.844;2023-05-19T15:12:47;17.90;52.00
69382;DHT22;56560;50.692;12.844;2023-05-19T15:15:12;17.90;51.90
69382;DHT22;56560;50.692;12.844;2023-05-19T15:17:40;17.90;52.00
69382;DHT22;56560;50.692;12.844;2023-05-19T15:20:06;17.90;52.30
69382;DHT22;56560;50.692;12.844;2023-05-19T15:22:32;17.90;52.30
69382;DHT22;56560;50.692;12.844;2023-05-19T15:24:58;17.80;52.50
69382;DHT22;56560;50.692;12.844;2023-05-19T15:27:25;17.70;53.10
69382;DHT22;56560;50.692;12.844;2023-05-19T15:29:51;17.50;53.50
69382;DHT22;56560;50.692;12.844;2023-05-19T15:32:16;17.30;53.70
69382;DHT22;56560;50.692;12.844;2023-05-19T15:34:42;17.10;54.30
69382;DHT22;56560;50.692;12.844;2023-05-19T15:37:08;17.00;54.50
69382;DHT22;56560;50.692;12.844;2023-05-19T15:39:34;16.80;55.10
69382;DHT22;56560;50.692;12.844;2023-05-19T15:41:59;16.90;54.90
69382;DHT22;56560;50.692;12.844;2023-05-19T15:44:25;16.80;54.90
69382;DHT22;56560;50.692;12.844;2023-05-19T15:46:50;16.70;55.20
69382;DHT22;56560;50.692;12.844;2023-05-19T15:49:16;16.70;55.70
69382;DHT22;56560;50.692;12.844;2023-05-19T15:51:45;16.80;55.70
69382;DHT22;56560;50.692;12.844;2023-05-19T15:54:10;16.90;55.70
69382;DHT22;56560;50.692;12.844;2023-05-19T15:56:36;17.10;55.50
69382;DHT22;56560;50.692;12.844;2023-05-19T15:59:01;17.20;55.20
69382;DHT22;56560;50.692;12.844;2023-05-19T16:01:27;17.40;54.80
69382;DHT22;56560;50.692;12.844;2023-05-19T16:03:53;17.40;54.70